sensor_id;sensor_type;location;lat;lon;timestamp;temperature;humidity
66312;HTU21D;53114;51.138;6.008;2022-07-29T00:00:45;20.80;52.91
66312;HTU21D;53114;51.138;6.008;2022-07-29T00:03:13;20.87;52.54
66312;HTU21D;53114;51.138;6.008;2022-07-29T00:05:40;20.90;51.88
66312;HTU21D;53114;51.138;6.008;2022-07-29T00:08:08;20.91;51.17
66312;HTU21D;53114;51.138;6.008;2022-07-29T00:10:35;20.94;51.36
66312;HTU21D;53114;51.138;6.008;2022-07-29T00:13:01;20.94;51.03
66312;HTU21D;53114;51.138;6.008;2022-07-29T00:15:27;20.95;51.23
66312;HTU21D;53114;51.138;6.008;2022-07-29T00:17:53;20.94;50.49
66312;HTU21D;53114;51.138;6.008;2022-07-29T00:20:19;20.92;50.97
66312;HTU21D;53114;51.138;6.008;2022-07-29T00:22:45;20.90;52.27
66312;HTU21D;53114;51.138;6.008;2022-07-29T00:25:12;20.87;51.71
66312;HTU21D;53114;51.138;6.008;2022-07-29T00:27:38;20.89;51.56
66312;HTU21D;53114;51.138;6.008;2022-07-29T00:30:05;20.88;52.17
66312;HTU21D;53114;51.138;6.008;2022-07-29T00:32:32;20.87;52.84
66312;HTU21D;53114;51.138;6.008;2022-07-29T00:34:58;20.89;52.03
66312;HTU21D;53114;51.138;6.008;2022-07-29T00:37:42;20.93;51.23
66312;HTU21D;53114;51.138;6.008;2022-07-29T00:40:08;20.98;50.80
66312;HTU21D;53114;51.138;6.008;2022-07-29T00:42:49;21.03;50.32
66312;HTU21D;53114;51.138;6.008;2022-07-29T00:45:16;21.06;49.99
66312;HTU21D;53114;51.138;6.008;2022-07-29T00:47:43;21.00;49.78
66312;HTU21D;53114;51.138;6.008;2022-07-29T00:50:11;20.91;49.94
66312;HTU21D;53114;51.138;6.008;2022-07-29T00:52:39;20.81;50.43
66312;HTU21D;53114;51.138;6.008;2022-07-29T00:55:11;20.75;51.50
66312;HTU21D;53114;51.138;6.008;2022-07-29T00:57:38;20.73;52.27
66312;HTU21D;53114;51.138;6.008;2022-07-29T01:00:08;20.70;52.85
66312;HTU21D;53114;51.138;6.008;2022-07-29T01:02:35;20.72;53.30
66312;HTU21D;53114;51.138;6.008;2022-07-29T01:05:02;20.70;53.29
66312;HTU21D;53114;51.138;6.008;2022-07-29T01:07:30;20.70;54.53
66312;HTU21D;53114;51.138;6.008;2022-07-29T01:09:58;20.63;58.44
66312;HTU21D;53114;51.138;6.008;2022-07-29T01:12:27;20.51;61.89
66312;HTU21D;53114;51.138;6.008;2022-07-29T01:14:55;20.35;66.24
66312;HTU21D;53114;51.138;6.008;2022-07-29T01:17:36;20.00;70.67
66312;HTU21D;53114;51.138;6.008;2022-07-29T01:25:37;17.51;102.80
66312;HTU21D;53114;51.138;6.008;2022-07-29T01:31:05;16.76;111.85
66312;HTU21D;53114;51.138;6.008;2022-07-29T01:33:38;16.72;113.29
66312;HTU21D;53114;51.138;6.008;2022-07-29T01:36:33;16.78;115.94
66312;HTU21D;53114;51.138;6.008;2022-07-29T01:39:14;16.87;116.13
66312;HTU21D;53114;51.138;6.008;2022-07-29T01:41:50;16.94;117.10
66312;HTU21D;53114;51.138;6.008;2022-07-29T01:44:30;16.90;115.93
66312;HTU21D;53114;51.138;6.008;2022-07-29T01:47:03;16.85;115.87
66312;HTU21D;53114;51.138;6.008;2022-07-29T01:49:35;16.87;117.19
66312;HTU21D;53114;51.138;6.008;2022-07-29T01:52:11;16.84;117.53
66312;HTU21D;53114;51.138;6.008;2022-07-29T01:54:42;16.63;118.99
66312;HTU21D;53114;51.138;6.008;2022-07-29T01:57:13;16.45;118.99
66312;HTU21D;53114;51.138;6.008;2022-07-29T01:59:42;16.33;118.99
66312;HTU21D;53114;51.138;6.008;2022-07-29T02:02:11;16.32;118.99
66312;HTU21D;53114;51.138;6.008;2022-07-29T02:04:41;16.35;118.99
66312;HTU21D;53114;51.138;6.008;2022-07-29T02:07:13;16.43;118.99
66312;HTU21D;53114;51.138;6.008;2022-07-29T02:09:43;16.54;118.99
66312;HTU21D;53114;51.138;6.008;2022-07-29T02:12:11;16.69;118.99
66312;HTU21D;53114;51.138;6.008;2022-07-29T02:14:47;16.81;118.99
66312;HTU21D;53114;51.138;6.008;2022-07-29T02:17:20;16.79;118.99
66312;HTU21D;53114;51.138;6.008;2022-07-29T02:19:47;16.71;118.99
66312;HTU21D;53114;51.138;6.008;2022-07-29T02:22:15;16.59;118.99
66312;HTU21D;53114;51.138;6.008;2022-07-29T02:24:44;16.51;118.99
66312;HTU21D;53114;51.138;6.008;2022-07-29T02:27:13;16.47;118.99
66312;HTU21D;53114;51.138;6.008;2022-07-29T02:29:40;16.46;118.99
66312;HTU21D;53114;51.138;6.008;2022-07-29T02:32:10;16.52;118.99
66312;HTU21D;53114;51.138;6.008;2022-07-29T02:34:38;16.62;118.99
66312;HTU21D;53114;51.138;6.008;2022-07-29T02:37:09;16.56;118.99
66312;HTU21D;53114;51.138;6.008;2022-07-29T02:39:37;16.31;118.99
66312;HTU21D;53114;51.138;6.008;2022-07-29T02:42:08;16.15;118.99
66312;HTU21D;53114;51.138;6.008;2022-07-29T02:44:36;16.06;118.99
66312;HTU21D;53114;51.138;6.008;2022-07-29T02:50:00;15.55;118.99
66312;HTU21D;53114;51.138;6.008;2022-07-29T02:52:37;15.41;118.99
66312;HTU21D;53114;51.138;6.008;2022-07-29T02:58:18;15.33;118.99
66312;HTU21D;53114;51.138;6.008;2022-07-29T03:00:50;15.37;118.99
66312;HTU21D;53114;51.138;6.008;2022-07-29T03:03:18;15.39;118.99
66312;HTU21D;53114;51.138;6.008;2022-07-29T03:05:45;15.39;118.99
66312;HTU21D;53114;51.138;6.008;2022-07-29T03:08:14;15.38;118.99
66312;HTU21D;53114;51.138;6.008;2022-07-29T03:10:44;15.37;118.99
66312;HTU21D;53114;51.138;6.008;2022-07-29T03:13:12;15.38;118.99
66312;HTU21D;53114;51.138;6.008;2022-07-29T03:15:39;15.36;118.99
66312;HTU21D;53114;51.138;6.008;2022-07-29T03:18:06;15.33;118.99
66312;HTU21D;53114;51.138;6.008;2022-07-29T03:20:32;15.37;118.99
66312;HTU21D;53114;51.138;6.008;2022-07-29T03:22:58;15.39;118.99
66312;HTU21D;53114;51.138;6.008;2022-07-29T03:25:24;15.39;118.99
66312;HTU21D;53114;51.138;6.008;2022-07-29T03:27:50;15.40;118.99
66312;HTU21D;53114;51.138;6.008;2022-07-29T03:30:16;15.38;118.99
66312;HTU21D;53114;51.138;6.008;2022-07-29T03:32:42;15.36;118.99
66312;HTU21D;53114;51.138;6.008;2022-07-29T03:35:08;15.36;118.99
66312;HTU21D;53114;51.138;6.008;2022-07-29T03:37:34;15.34;118.99
66312;HTU21D;53114;51.138;6.008;2022-07-29T03:40:06;15.34;118.99
66312;HTU21D;53114;51.138;6.008;2022-07-29T03:42:36;15.40;118.99
66312;HTU21D;53114;51.138;6.008;2022-07-29T03:45:07;15.40;118.99
66312;HTU21D;53114;51.138;6.008;2022-07-29T03:47:37;15.38;118.99
66312;HTU21D;53114;51.138;6.008;2022-07-29T03:50:08;15.39;118.99
66312;HTU21D;53114;51.138;6.008;2022-07-29T03:52:36;15.42;118.99
66312;HTU21D;53114;51.138;6.008;2022-07-29T03:55:03;15.52;118.99
66312;HTU21D;53114;51.138;6.008;2022-07-29T03:57:30;15.52;118.99
66312;HTU21D;53114;51.138;6.008;2022-07-29T03:59:58;15.52;118.99
66312;HTU21D;53114;51.138;6.008;2022-07-29T04:02:26;15.61;118.99
66312;HTU21D;53114;51.138;6.008;2022-07-29T04:04:52;15.62;118.99
66312;HTU21D;53114;51.138;6.008;2022-07-29T04:07:18;15.63;118.99
66312;HTU21D;53114;51.138;6.008;2022-07-29T04:09:44;15.67;118.99
66312;HTU21D;53114;51.138;6.008;2022-07-29T04:12:10;15.70;118.99
66312;HTU21D;53114;51.138;6.008;2022-07-29T04:14:36;15.68;118.99
66312;HTU21D;53114;51.138;6.008;2022-07-29T04:17:03;15.72;118.99
66312;HTU21D;53114;51.138;6.008;2022-07-29T04:19:30;15.67;118.99
66312;HTU21D;53114;51.138;6.008;2022-07-29T04:21:56;15.59;118.99
66312;HTU21D;53114;51.138;6.008;2022-07-29T04:24:22;15.59;118.99
66312;HTU21D;53114;51.138;6.008;2022-07-29T04:26:49;15.61;118.99
66312;HTU21D;53114;51.138;6.008;2022-07-29T04:29:15;15.66;118.99
66312;HTU21D;53114;51.138;6.008;2022-07-29T04:31:41;15.70;118.99
66312;HTU21D;53114;51.138;6.008;2022-07-29T04:34:07;15.81;118.99
66312;HTU21D;53114;51.138;6.008;2022-07-29T04:36:33;15.84;118.99
66312;HTU21D;53114;51.138;6.008;2022-07-29T04:38:59;15.81;118.99
66312;HTU21D;53114;51.138;6.008;2022-07-29T04:41:27;15.71;118.99
66312;HTU21D;53114;51.138;6.008;2022-07-29T04:43:53;15.69;118.99
66312;HTU21D;53114;51.138;6.008;2022-07-29T04:46:19;15.72;118.99
66312;HTU21D;53114;51.138;6.008;2022-07-29T04:48:46;15.75;118.99
66312;HTU21D;53114;51.138;6.008;2022-07-29T04:51:13;15.76;118.99
66312;HTU21D;53114;51.138;6.008;2022-07-29T04:53:38;15.78;118.99
66312;HTU21D;53114;51.138;6.008;2022-07-29T04:56:04;15.84;118.99
66312;HTU21D;53114;51.138;6.008;2022-07-29T04:58:30;15.87;118.99
66312;HTU21D;53114;51.138;6.008;2022-07-29T05:00:56;15.86;118.99
66312;HTU21D;53114;51.138;6.008;2022-07-29T05:03:22;15.88;118.99
66312;HTU21D;53114;51.138;6.008;2022-07-29T05:05:48;15.99;118.99
66312;HTU21D;53114;51.138;6.008;2022-07-29T05:08:14;16.15;118.99
66312;HTU21D;53114;51.138;6.008;2022-07-29T05:10:40;16.26;118.99
66312;HTU21D;53114;51.138;6.008;2022-07-29T05:13:06;16.33;118.99
66312;HTU21D;53114;51.138;6.008;2022-07-29T05:15:33;16.41;118.99
66312;HTU21D;53114;51.138;6.008;2022-07-29T05:18:00;16.49;118.99
66312;HTU21D;53114;51.138;6.008;2022-07-29T05:20:27;16.52;118.99
66312;HTU21D;53114;51.138;6.008;2022-07-29T05:22:58;16.52;118.99
66312;HTU21D;53114;51.138;6.008;2022-07-29T05:25:26;16.58;118.99
66312;HTU21D;53114;51.138;6.008;2022-07-29T05:27:52;16.72;118.99
66312;HTU21D;53114;51.138;6.008;2022-07-29T05:30:19;16.88;118.99
66312;HTU21D;53114;51.138;6.008;2022-07-29T05:32:45;16.99;118.99
66312;HTU21D;53114;51.138;6.008;2022-07-29T05:35:13;17.05;118.99
66312;HTU21D;53114;51.138;6.008;2022-07-29T05:37:39;17.02;118.99
66312;HTU21D;53114;51.138;6.008;2022-07-29T05:40:05;16.88;118.99
66312;HTU21D;53114;51.138;6.008;2022-07-29T05:42:31;16.76;118.99
66312;HTU21D;53114;51.138;6.008;2022-07-29T05:44:58;16.70;118.99
66312;HTU21D;53114;51.138;6.008;2022-07-29T05:47:23;16.56;118.99
66312;HTU21D;53114;51.138;6.008;2022-07-29T05:49:50;16.47;118.99
66312;HTU21D;53114;51.138;6.008;2022-07-29T05:52:16;16.41;118.99
66312;HTU21D;53114;51.138;6.008;2022-07-29T05:54:42;16.33;118.99
66312;HTU21D;53114;51.138;6.008;2022-07-29T05:57:08;16.34;118.99
66312;HTU21D;53114;51.138;6.008;2022-07-29T05:59:37;16.36;118.99
66312;HTU21D;53114;51.138;6.008;2022-07-29T06:02:03;16.39;118.99
66312;HTU21D;53114;51.138;6.008;2022-07-29T06:04:31;16.43;118.99
66312;HTU21D;53114;51.138;6.008;2022-07-29T06:06:57;16.50;118.99
66312;HTU21D;53114;51.138;6.008;2022-07-29T06:09:23;16.63;118.99
66312;HTU21D;53114;51.138;6.008;2022-07-29T06:11:49;16.76;118.99
66312;HTU21D;53114;51.138;6.008;2022-07-29T06:14:15;16.88;118.99
66312;HTU21D;53114;51.138;6.008;2022-07-29T06:16:41;17.03;118.99
66312;HTU21D;53114;51.138;6.008;2022-07-29T06:19:07;17.14;118.99
66312;HTU21D;53114;51.138;6.008;2022-07-29T06:21:33;17.19;118.99
66312;HTU21D;53114;51.138;6.008;2022-07-29T06:23:59;17.24;118.99
66312;HTU21D;53114;51.138;6.008;2022-07-29T06:26:25;17.24;118.99
66312;HTU21D;53114;51.138;6.008;2022-07-29T06:28:51;17.24;118.99
66312;HTU21D;53114;51.138;6.008;2022-07-29T06:31:17;17.24;118.99
66312;HTU21D;53114;51.138;6.008;2022-07-29T06:33:42;17.25;118.99
66312;HTU21D;53114;51.138;6.008;2022-07-29T06:36:09;17.29;118.99
66312;HTU21D;53114;51.138;6.008;2022-07-29T06:38:34;17.34;118.99
66312;HTU21D;53114;51.138;6.008;2022-07-29T06:41:00;17.40;118.99
66312;HTU21D;53114;51.138;6.008;2022-07-29T06:43:38;17.44;118.99
66312;HTU21D;53114;51.138;6.008;2022-07-29T06:46:12;17.41;118.99
66312;HTU21D;53114;51.138;6.008;2022-07-29T06:48:40;17.46;118.99
66312;HTU21D;53114;51.138;6.008;2022-07-29T06:51:09;17.46;118.99
66312;HTU21D;53114;51.138;6.008;2022-07-29T06:53:35;17.44;118.99
66312;HTU21D;53114;51.138;6.008;2022-07-29T06:56:02;17.48;118.99
66312;HTU21D;53114;51.138;6.008;2022-07-29T06:58:30;17.56;118.99
66312;HTU21D;53114;51.138;6.008;2022-07-29T07:00:58;17.62;118.99
66312;HTU21D;53114;51.138;6.008;2022-07-29T07:03:26;17.60;118.99
66312;HTU21D;53114;51.138;6.008;2022-07-29T07:05:53;17.67;118.99
66312;HTU21D;53114;51.138;6.008;2022-07-29T07:08:20;17.78;118.99
66312;HTU21D;53114;51.138;6.008;2022-07-29T07:10:48;17.80;118.99
66312;HTU21D;53114;51.138;6.008;2022-07-29T07:13:14;17.91;118.99
66312;HTU21D;53114;51.138;6.008;2022-07-29T07:15:46;17.99;118.99
66312;HTU21D;53114;51.138;6.008;2022-07-29T07:18:15;18.03;118.99
66312;HTU21D;53114;51.138;6.008;2022-07-29T07:20:41;17.92;118.99
66312;HTU21D;53114;51.138;6.008;2022-07-29T07:23:07;17.82;118.99
66312;HTU21D;53114;51.138;6.008;2022-07-29T07:25:34;17.85;118.99
66312;HTU21D;53114;51.138;6.008;2022-07-29T07:28:00;17.94;118.99
66312;HTU21D;53114;51.138;6.008;2022-07-29T07:30:27;17.98;118.99
66312;HTU21D;53114;51.138;6.008;2022-07-29T07:32:53;18.05;118.99
66312;HTU21D;53114;51.138;6.008;2022-07-29T07:35:19;18.07;118.99
66312;HTU21D;53114;51.138;6.008;2022-07-29T07:37:45;18.05;118.99
66312;HTU21D;53114;51.138;6.008;2022-07-29T07:40:11;18.05;118.99
66312;HTU21D;53114;51.138;6.008;2022-07-29T07:42:38;18.14;118.99
66312;HTU21D;53114;51.138;6.008;2022-07-29T07:45:05;18.26;118.99
66312;HTU21D;53114;51.138;6.008;2022-07-29T07:47:32;18.36;118.99
66312;HTU21D;53114;51.138;6.008;2022-07-29T07:49:58;18.50;118.99
66312;HTU21D;53114;51.138;6.008;2022-07-29T07:52:24;18.70;118.99
66312;HTU21D;53114;51.138;6.008;2022-07-29T07:54:50;19.29;118.99
66312;HTU21D;53114;51.138;6.008;2022-07-29T07:57:16;20.87;117.12
66312;HTU21D;53114;51.138;6.008;2022-07-29T07:59:42;22.58;102.40
66312;HTU21D;53114;51.138;6.008;2022-07-29T08:02:09;23.32;94.11
66312;HTU21D;53114;51.138;6.008;2022-07-29T08:04:35;24.39;89.03
66312;HTU21D;53114;51.138;6.008;2022-07-29T08:07:02;25.34;79.14
66312;HTU21D;53114;51.138;6.008;2022-07-29T08:09:28;25.78;74.93
66312;HTU21D;53114;51.138;6.008;2022-07-29T08:11:56;25.61;75.86
66312;HTU21D;53114;51.138;6.008;2022-07-29T08:14:23;25.89;75.15
66312;HTU21D;53114;51.138;6.008;2022-07-29T08:16:49;26.87;69.99
66312;HTU21D;53114;51.138;6.008;2022-07-29T08:19:15;27.00;67.67
66312;HTU21D;53114;51.138;6.008;2022-07-29T08:21:40;27.04;69.03
66312;HTU21D;53114;51.138;6.008;2022-07-29T08:24:06;27.69;63.12
66312;HTU21D;53114;51.138;6.008;2022-07-29T08:26:51;27.22;62.68
66312;HTU21D;53114;51.138;6.008;2022-07-29T08:29:17;26.31;64.95
66312;HTU21D;53114;51.138;6.008;2022-07-29T08:31:43;25.50;70.35
66312;HTU21D;53114;51.138;6.008;2022-07-29T08:34:09;26.06;72.63
66312;HTU21D;53114;51.138;6.008;2022-07-29T08:36:35;27.56;66.59
66312;HTU21D;53114;51.138;6.008;2022-07-29T08:39:02;28.17;59.73
66312;HTU21D;53114;51.138;6.008;2022-07-29T08:41:28;27.93;59.47
66312;HTU21D;53114;51.138;6.008;2022-07-29T08:43:54;26.96;60.78
66312;HTU21D;53114;51.138;6.008;2022-07-29T08:46:21;25.80;66.48
66312;HTU21D;53114;51.138;6.008;2022-07-29T08:48:47;24.83;72.64
66312;HTU21D;53114;51.138;6.008;2022-07-29T08:51:17;24.14;78.27
66312;HTU21D;53114;51.138;6.008;2022-07-29T08:53:44;23.74;82.24
66312;HTU21D;53114;51.138;6.008;2022-07-29T08:56:15;23.51;84.17
66312;HTU21D;53114;51.138;6.008;2022-07-29T08:58:46;23.77;86.03
66312;HTU21D;53114;51.138;6.008;2022-07-29T09:01:17;25.77;79.12
66312;HTU21D;53114;51.138;6.008;2022-07-29T09:03:47;27.23;65.03
66312;HTU21D;53114;51.138;6.008;2022-07-29T09:06:14;26.81;64.94
66312;HTU21D;53114;51.138;6.008;2022-07-29T09:08:41;25.83;69.54
66312;HTU21D;53114;51.138;6.008;2022-07-29T09:11:07;24.98;73.13
66312;HTU21D;53114;51.138;6.008;2022-07-29T09:13:34;24.27;76.39
66312;HTU21D;53114;51.138;6.008;2022-07-29T09:16:00;23.73;79.91
66312;HTU21D;53114;51.138;6.008;2022-07-29T09:18:41;23.23;82.48
66312;HTU21D;53114;51.138;6.008;2022-07-29T09:21:10;22.83;85.14
66312;HTU21D;53114;51.138;6.008;2022-07-29T09:24:07;22.52;88.28
66312;HTU21D;53114;51.138;6.008;2022-07-29T09:26:36;22.32;89.50
66312;HTU21D;53114;51.138;6.008;2022-07-29T09:29:17;22.18;90.89
66312;HTU21D;53114;51.138;6.008;2022-07-29T09:31:45;22.11;90.57
66312;HTU21D;53114;51.138;6.008;2022-07-29T09:34:14;22.05;92.34
66312;HTU21D;53114;51.138;6.008;2022-07-29T09:36:46;22.09;93.06
66312;HTU21D;53114;51.138;6.008;2022-07-29T09:39:14;22.10;90.42
66312;HTU21D;53114;51.138;6.008;2022-07-29T09:42:01;21.93;91.95
66312;HTU21D;53114;51.138;6.008;2022-07-29T09:44:44;21.88;93.73
66312;HTU21D;53114;51.138;6.008;2022-07-29T09:47:11;21.89;94.17
66312;HTU21D;53114;51.138;6.008;2022-07-29T09:49:57;21.91;94.00
66312;HTU21D;53114;51.138;6.008;2022-07-29T09:52:29;21.93;93.29
66312;HTU21D;53114;51.138;6.008;2022-07-29T09:55:09;21.85;94.85
66312;HTU21D;53114;51.138;6.008;2022-07-29T09:57:35;21.79;94.52
66312;HTU21D;53114;51.138;6.008;2022-07-29T10:00:11;21.64;96.75
66312;HTU21D;53114;51.138;6.008;2022-07-29T10:02:40;21.57;97.49
66312;HTU21D;53114;51.138;6.008;2022-07-29T10:05:20;21.51;97.11
66312;HTU21D;53114;51.138;6.008;2022-07-29T10:07:55;21.64;98.33
66312;HTU21D;53114;51.138;6.008;2022-07-29T10:10:33;22.08;95.94
66312;HTU21D;53114;51.138;6.008;2022-07-29T10:13:02;22.50;91.97
66312;HTU21D;53114;51.138;6.008;2022-07-29T10:15:31;22.88;88.15
66312;HTU21D;53114;51.138;6.008;2022-07-29T10:17:58;23.01;81.10
66312;HTU21D;53114;51.138;6.008;2022-07-29T10:20:27;23.02;82.62
66312;HTU21D;53114;51.138;6.008;2022-07-29T10:22:53;23.20;82.38
66312;HTU21D;53114;51.138;6.008;2022-07-29T10:25:20;23.31;83.23
66312;HTU21D;53114;51.138;6.008;2022-07-29T10:27:49;23.65;86.21
66312;HTU21D;53114;51.138;6.008;2022-07-29T10:30:18;24.55;80.81
66312;HTU21D;53114;51.138;6.008;2022-07-29T10:38:42;25.06;73.51
66312;HTU21D;53114;51.138;6.008;2022-07-29T10:41:15;24.97;72.32
66312;HTU21D;53114;51.138;6.008;2022-07-29T10:44:01;24.80;73.53
66312;HTU21D;53114;51.138;6.008;2022-07-29T10:46:28;24.69;75.33
66312;HTU21D;53114;51.138;6.008;2022-07-29T10:54:45;24.53;78.83
66312;HTU21D;53114;51.138;6.008;2022-07-29T10:59:43;24.43;79.14
66312;HTU21D;53114;51.138;6.008;2022-07-29T11:07:21;25.57;76.66
66312;HTU21D;53114;51.138;6.008;2022-07-29T11:15:06;26.02;71.47
66312;HTU21D;53114;51.138;6.008;2022-07-29T11:20:39;25.32;73.50
66312;HTU21D;53114;51.138;6.008;2022-07-29T11:23:32;25.32;75.29
66312;HTU21D;53114;51.138;6.008;2022-07-29T11:26:20;25.56;75.99
66312;HTU21D;53114;51.138;6.008;2022-07-29T11:31:41;26.67;70.87
66312;HTU21D;53114;51.138;6.008;2022-07-29T11:39:38;28.88;60.12
66312;HTU21D;53114;51.138;6.008;2022-07-29T11:45:11;29.13;57.90
66312;HTU21D;53114;51.138;6.008;2022-07-29T11:47:48;29.19;58.93
66312;HTU21D;53114;51.138;6.008;2022-07-29T11:50:18;29.04;56.03
66312;HTU21D;53114;51.138;6.008;2022-07-29T11:52:51;29.21;54.69
66312;HTU21D;53114;51.138;6.008;2022-07-29T11:55:20;29.06;53.32
66312;HTU21D;53114;51.138;6.008;2022-07-29T11:57:53;28.91;56.12
66312;HTU21D;53114;51.138;6.008;2022-07-29T12:00:31;28.59;55.93
66312;HTU21D;53114;51.138;6.008;2022-07-29T12:02:59;28.20;57.06
66312;HTU21D;53114;51.138;6.008;2022-07-29T12:05:40;28.04;57.35
66312;HTU21D;53114;51.138;6.008;2022-07-29T12:08:17;27.91;58.18
66312;HTU21D;53114;51.138;6.008;2022-07-29T12:10:49;28.01;59.85
66312;HTU21D;53114;51.138;6.008;2022-07-29T12:13:17;27.98;60.67
66312;HTU21D;53114;51.138;6.008;2022-07-29T12:15:54;28.06;59.82
66312;HTU21D;53114;51.138;6.008;2022-07-29T12:18:23;28.11;58.64
66312;HTU21D;53114;51.138;6.008;2022-07-29T12:20:57;28.06;58.96
66312;HTU21D;53114;51.138;6.008;2022-07-29T12:23:24;27.93;57.18
66312;HTU21D;53114;51.138;6.008;2022-07-29T12:25:50;27.87;58.37
66312;HTU21D;53114;51.138;6.008;2022-07-29T12:28:16;27.97;58.09
66312;HTU21D;53114;51.138;6.008;2022-07-29T12:30:47;28.13;57.59
66312;HTU21D;53114;51.138;6.008;2022-07-29T12:33:18;28.05;56.81
66312;HTU21D;53114;51.138;6.008;2022-07-29T12:35:51;27.98;58.68
66312;HTU21D;53114;51.138;6.008;2022-07-29T12:38:18;27.98;58.41
66312;HTU21D;53114;51.138;6.008;2022-07-29T12:40:46;28.08;57.67
66312;HTU21D;53114;51.138;6.008;2022-07-29T12:43:18;28.13;58.93
66312;HTU21D;53114;51.138;6.008;2022-07-29T12:45:47;28.15;58.20
66312;HTU21D;53114;51.138;6.008;2022-07-29T12:48:16;28.08;57.19
66312;HTU21D;53114;51.138;6.008;2022-07-29T12:50:56;27.93;58.83
66312;HTU21D;53114;51.138;6.008;2022-07-29T12:53:23;27.88;59.70
66312;HTU21D;53114;51.138;6.008;2022-07-29T12:55:51;27.97;57.64
66312;HTU21D;53114;51.138;6.008;2022-07-29T12:58:38;27.84;58.26
66312;HTU21D;53114;51.138;6.008;2022-07-29T13:01:18;27.82;55.31
66312;HTU21D;53114;51.138;6.008;2022-07-29T13:03:54;27.56;55.98
66312;HTU21D;53114;51.138;6.008;2022-07-29T13:06:41;27.43;57.80
66312;HTU21D;53114;51.138;6.008;2022-07-29T13:09:11;27.40;57.33
66312;HTU21D;53114;51.138;6.008;2022-07-29T13:11:41;27.39;57.11
66312;HTU21D;53114;51.138;6.008;2022-07-29T13:14:10;27.39;55.15
66312;HTU21D;53114;51.138;6.008;2022-07-29T13:17:00;27.44;55.84
66312;HTU21D;53114;51.138;6.008;2022-07-29T13:19:38;27.54;55.96
66312;HTU21D;53114;51.138;6.008;2022-07-29T13:22:10;27.50;55.18
66312;HTU21D;53114;51.138;6.008;2022-07-29T13:24:50;27.45;55.02
66312;HTU21D;53114;51.138;6.008;2022-07-29T13:27:25;27.53;54.22
66312;HTU21D;53114;51.138;6.008;2022-07-29T13:29:51;27.56;55.41
66312;HTU21D;53114;51.138;6.008;2022-07-29T13:32:21;27.61;55.10
66312;HTU21D;53114;51.138;6.008;2022-07-29T13:34:47;27.60;55.20
66312;HTU21D;53114;51.138;6.008;2022-07-29T13:37:13;27.44;54.24
66312;HTU21D;53114;51.138;6.008;2022-07-29T13:39:39;27.26;54.42
66312;HTU21D;53114;51.138;6.008;2022-07-29T13:42:07;27.23;56.23
66312;HTU21D;53114;51.138;6.008;2022-07-29T13:44:34;27.30;55.29
66312;HTU21D;53114;51.138;6.008;2022-07-29T13:47:00;27.39;53.62
66312;HTU21D;53114;51.138;6.008;2022-07-29T13:49:27;27.38;53.45
66312;HTU21D;53114;51.138;6.008;2022-07-29T13:51:53;27.40;54.51
66312;HTU21D;53114;51.138;6.008;2022-07-29T13:54:19;27.41;53.78
66312;HTU21D;53114;51.138;6.008;2022-07-29T13:56:45;27.40;53.11
66312;HTU21D;53114;51.138;6.008;2022-07-29T13:59:12;27.38;51.56
66312;HTU21D;53114;51.138;6.008;2022-07-29T14:01:38;27.27;52.28
66312;HTU21D;53114;51.138;6.008;2022-07-29T14:04:07;27.25;53.77
66312;HTU21D;53114;51.138;6.008;2022-07-29T14:06:33;27.25;55.69
66312;HTU21D;53114;51.138;6.008;2022-07-29T14:08:59;27.30;54.95
66312;HTU21D;53114;51.138;6.008;2022-07-29T14:11:25;27.34;54.15
66312;HTU21D;53114;51.138;6.008;2022-07-29T14:13:51;27.35;55.10
66312;HTU21D;53114;51.138;6.008;2022-07-29T14:16:17;27.28;56.14
66312;HTU21D;53114;51.138;6.008;2022-07-29T14:18:43;27.31;56.10
66312;HTU21D;53114;51.138;6.008;2022-07-29T14:21:09;27.39;55.89
66312;HTU21D;53114;51.138;6.008;2022-07-29T14:23:35;27.49;54.17
66312;HTU21D;53114;51.138;6.008;2022-07-29T14:26:02;27.56;54.95
66312;HTU21D;53114;51.138;6.008;2022-07-29T14:28:28;27.52;54.61
66312;HTU21D;53114;51.138;6.008;2022-07-29T14:30:54;27.44;55.09
66312;HTU21D;53114;51.138;6.008;2022-07-29T14:33:20;27.46;55.16
66312;HTU21D;53114;51.138;6.008;2022-07-29T14:35:46;27.49;54.63
66312;HTU21D;53114;51.138;6.008;2022-07-29T14:38:12;27.44;55.59
66312;HTU21D;53114;51.138;6.008;2022-07-29T14:40:38;27.37;53.98
66312;HTU21D;53114;51.138;6.008;2022-07-29T14:43:04;27.20;56.32
66312;HTU21D;53114;51.138;6.008;2022-07-29T14:45:30;27.10;56.63
66312;HTU21D;53114;51.138;6.008;2022-07-29T14:47:57;27.09;57.00
66312;HTU21D;53114;51.138;6.008;2022-07-29T14:50:23;27.19;56.52
66312;HTU21D;53114;51.138;6.008;2022-07-29T14:52:48;27.41;55.33
66312;HTU21D;53114;51.138;6.008;2022-07-29T14:55:14;27.63;55.11
66312;HTU21D;53114;51.138;6.008;2022-07-29T14:57:40;27.79;54.49
66312;HTU21D;53114;51.138;6.008;2022-07-29T15:00:07;27.87;53.88
66312;HTU21D;53114;51.138;6.008;2022-07-29T15:02:33;27.87;55.00
66312;HTU21D;53114;51.138;6.008;2022-07-29T15:04:59;27.82;54.39
66312;HTU21D;53114;51.138;6.008;2022-07-29T15:07:25;27.79;53.56
66312;HTU21D;53114;51.138;6.008;2022-07-29T15:09:51;27.81;52.18
66312;HTU21D;53114;51.138;6.008;2022-07-29T15:12:17;27.84;51.74
66312;HTU21D;53114;51.138;6.008;2022-07-29T15:14:43;27.86;51.81
66312;HTU21D;53114;51.138;6.008;2022-07-29T15:17:08;27.87;52.89
66312;HTU21D;53114;51.138;6.008;2022-07-29T15:19:35;27.75;52.88
66312;HTU21D;53114;51.138;6.008;2022-07-29T15:22:01;27.70;53.07
66312;HTU21D;53114;51.138;6.008;2022-07-29T15:24:27;27.68;52.40
66312;HTU21D;53114;51.138;6.008;2022-07-29T15:26:53;27.81;52.85
66312;HTU21D;53114;51.138;6.008;2022-07-29T15:29:19;27.83;51.75
66312;HTU21D;53114;51.138;6.008;2022-07-29T15:31:44;27.91;51.48
66312;HTU21D;53114;51.138;6.008;2022-07-29T15:34:10;28.01;49.94
66312;HTU21D;53114;51.138;6.008;2022-07-29T15:36:36;28.15;51.07
66312;HTU21D;53114;51.138;6.008;2022-07-29T15:39:02;28.27;51.04
66312;HTU21D;53114;51.138;6.008;2022-07-29T15:41:28;28.34;51.30
66312;HTU21D;53114;51.138;6.008;2022-07-29T15:43:54;28.32;48.54
66312;HTU21D;53114;51.138;6.008;2022-07-29T15:46:20;28.18;50.17
66312;HTU21D;53114;51.138;6.008;2022-07-29T15:49:05;28.09;49.89
66312;HTU21D;53114;51.138;6.008;2022-07-29T15:51:32;28.05;49.47
66312;HTU21D;53114;51.138;6.008;2022-07-29T15:53:59;28.02;48.80
66312;HTU21D;53114;51.138;6.008;2022-07-29T15:56:25;27.95;49.06
66312;HTU21D;53114;51.138;6.008;2022-07-29T15:58:52;27.91;50.05
66312;HTU21D;53114;51.138;6.008;2022-07-29T16:01:18;27.87;49.85
66312;HTU21D;53114;51.138;6.008;2022-07-29T16:03:44;27.91;49.64
66312;HTU21D;53114;51.138;6.008;2022-07-29T16:06:10;28.12;48.24
66312;HTU21D;53114;51.138;6.008;2022-07-29T16:08:36;28.29;47.88
66312;HTU21D;53114;51.138;6.008;2022-07-29T16:11:02;28.32;46.73
66312;HTU21D;53114;51.138;6.008;2022-07-29T16:13:28;28.31;46.49